Time;durP1;ratioP1;P1;durP2;ratioP2;P2;SDS_P1;SDS_P2;PMS_P1;PMS_P2;Temp;Humidity;BMP_temperature;BMP_pressure;BME280_temperature;BME280_humidity;BME280_pressure;Samples;Min_cycle;Max_cycle;Signal;HPM_P1;HPM_P2
2023/06/06 06:34:11;;;;;;;;;12.33;12.33;;;;;;;;6326383;22;44479;-95
2023/06/06 06:37:11;;;;;;;;;;;;;;;;;;;;;
2023/06/06 06:39:52;;;;;;;;;13.00;13.00;;;;;;;;6295277;22;45380;-95
2023/06/06 06:46:12;;;;;;;;;12.00;11.33;;;;;;;;6143852;23;28258;-96
2023/06/06 07:22:18;;;;;;;;;7.67;7.33;;;;;;;;6302624;22;45138;-95
2023/06/06 08:03:42;;;;;;;;;;;;;;;;;;;;;
2023/06/06 10:30:58;;;;;;;;;9.00;9.00;;;;;;;;6333501;22;28351;-96
2023/06/06 10:43:35;;;;;;;;;6.00;6.00;;;;;;;;6172826;23;28316;-95
2023/06/06 10:46:19;;;;;;;;;9.33;9.33;;;;;;;;6171106;23;28435;-96
2023/06/06 11:07:18;;;;;;;;;9.00;9.00;;;;;;;;6329757;22;28442;-96
2023/06/06 11:12:18;;;;;;;;;6.67;6.67;;;;;;;;6355052;22;28870;-92
2023/06/06 11:14:57;;;;;;;;;7.00;7.00;;;;;;;;6361541;22;28237;-94
2023/06/06 11:17:31;;;;;;;;;9.33;9.33;;;;;;;;6361551;22;28419;-91
2023/06/06 11:20:03;;;;;;;;;8.00;8.00;;;;;;;;5818094;22;8538686;-93
2023/06/06 11:22:33;;;;;;;;;10.00;10.00;;;;;;;;5220169;22;21677721;-95
2023/06/06 11:24:59;;;;;;;;;8.50;8.50;;;;;;;;6306866;22;568262;-95
2023/06/06 11:27:25;;;;;;;;;7.25;7.25;;;;;;;;6173693;22;2188610;-95
2023/06/06 11:29:52;;;;;;;;;10.00;10.00;;;;;;;;5344524;22;6040853;-94
2023/06/06 11:32:17;;;;;;;;;8.25;7.00;;;;;;;;6155654;22;1108860;-94
2023/06/06 11:34:46;;;;;;;;;10.25;10.25;;;;;;;;3851884;22;23577219;-94
2023/06/06 11:37:12;;;;;;;;;9.50;8.50;;;;;;;;1938171;22;15190469;-95
2023/06/06 11:39:38;;;;;;;;;9.50;9.50;;;;;;;;4642825;22;15686051;-95
2023/06/06 11:42:06;;;;;;;;;8.00;8.00;;;;;;;;4895668;22;7271102;-94
2023/06/06 11:44:33;;;;;;;;;10.75;10.75;;;;;;;;5889400;22;5715390;-95
2023/06/06 11:46:58;;;;;;;;;8.67;8.67;;;;;;;;6362042;22;28412;-94
2023/06/06 11:49:24;;;;;;;;;5.33;5.33;;;;;;;;6362291;22;28306;-93
2023/06/06 11:51:56;;;;;;;;;13.33;13.33;;;;;;;;6362178;22;28315;-95
2023/06/06 11:54:21;;;;;;;;;10.50;9.00;;;;;;;;6251679;22;2331664;-96
2023/06/06 11:56:50;;;;;;;;;8.00;8.00;;;;;;;;6227265;22;1000473;-96
2023/06/06 11:59:15;;;;;;;;;8.00;7.00;;;;;;;;6062113;22;2886931;-96
2023/06/06 12:01:49;;;;;;;;;10.00;10.00;;;;;;;;4341704;22;11363341;-96
2023/06/06 12:04:15;;;;;;;;;10.00;10.00;;;;;;;;6167009;22;2115558;-96
2023/06/06 12:06:47;;;;;;;;;10.00;10.00;;;;;;;;6356520;22;47095;-96
2023/06/06 12:09:12;;;;;;;;;8.00;8.00;;;;;;;;6331817;22;28353;-96
2023/06/06 12:11:50;;;;;;;;;7.33;7.33;;;;;;;;5030194;22;6416013;-95
2023/06/06 12:14:21;;;;;;;;;6.33;6.33;;;;;;;;6307448;22;388279;-96
2023/06/06 12:16:51;;;;;;;;;8.00;8.00;;;;;;;;6357392;22;28434;-96
2023/06/06 12:19:17;;;;;;;;;10.00;10.00;;;;;;;;6332908;22;28714;-96
2023/06/06 12:21:46;;;;;;;;;8.33;8.33;;;;;;;;6356355;22;76777;-95
2023/06/06 12:24:16;;;;;;;;;9.67;9.67;;;;;;;;6334162;22;345909;-96
2023/06/06 12:26:56;;;;;;;;;8.33;8.33;;;;;;;;5498773;22;7838114;-95
2023/06/06 12:29:30;;;;;;;;;11.00;11.00;;;;;;;;6026768;22;2714902;-95
2023/06/06 12:32:30;;;;;;;;;5.33;5.33;;;;;;;;6356702;22;118825;-96
2023/06/06 12:35:02;;;;;;;;;6.25;6.25;;;;;;;;5140871;22;15489478;-95
2023/06/06 12:37:36;;;;;;;;;7.25;7.25;;;;;;;;6087847;22;5111586;-96
2023/06/06 12:40:08;;;;;;;;;7.00;7.00;;;;;;;;6257769;22;1666488;-96
2023/06/06 12:42:34;;;;;;;;;8.00;8.00;;;;;;;;6363398;22;28371;-95
2023/06/06 12:44:59;;;;;;;;;8.33;8.33;;;;;;;;6363026;22;28345;-96
2023/06/06 12:47:25;;;;;;;;;7.33;7.33;;;;;;;;6334377;22;28412;-95
2023/06/06 12:49:50;;;;;;;;;7.67;7.67;;;;;;;;6362671;22;28450;-94
2023/06/06 12:52:15;;;;;;;;;8.00;8.00;;;;;;;;6361689;22;28458;-93
2023/06/06 12:54:41;;;;;;;;;9.00;9.00;;;;;;;;6357689;22;44756;-94
2023/06/06 12:57:10;;;;;;;;;7.67;7.67;;;;;;;;6345670;22;47808;-95
2023/06/06 13:00:00;;;;;;;;;10.00;10.00;;;;;;;;4329040;22;35162027;-95
2023/06/06 13:02:25;;;;;;;;;8.00;8.00;;;;;;;;4772244;22;15094879;-96
2023/06/06 13:04:51;;;;;;;;;7.00;7.00;;;;;;;;6345269;22;187839;-95
2023/06/06 13:07:16;;;;;;;;;8.00;8.00;;;;;;;;6321234;22;278707;-96
2023/06/06 13:09:41;;;;;;;;;9.00;9.00;;;;;;;;6314624;22;736889;-95
2023/06/06 13:12:29;;;;;;;;;9.50;9.50;;;;;;;;5030510;22;25121221;-95
2023/06/06 13:14:57;;;;;;;;;7.00;7.00;;;;;;;;924576;22;46476950;-95
2023/06/06 13:17:33;;;;;;;;;6.00;6.00;;;;;;;;3655652;22;9626802;-95
2023/06/06 13:20:27;;;;;;;;;10.50;10.50;;;;;;;;2328452;22;43181752;-95
2023/06/06 13:22:52;;;;;;;;;10.50;10.50;;;;;;;;1957372;22;41337057;-95
2023/06/06 13:25:18;;;;;;;;;9.80;9.80;;;;;;;;3255410;22;30265072;-95
2023/06/06 13:27:43;;;;;;;;;5.00;5.00;;;;;;;;6015795;22;4240054;-95
2023/06/06 13:30:09;;;;;;;;;10.00;10.00;;;;;;;;5754513;22;6448129;-95
2023/06/06 13:32:35;;;;;;;;;11.33;10.33;;;;;;;;6245985;22;635618;-95
2023/06/06 13:35:00;;;;;;;;;7.67;7.67;;;;;;;;6168140;22;957749;-94
2023/06/06 13:37:25;;;;;;;;;8.80;8.80;;;;;;;;4108143;22;23964980;-94
2023/06/06 13:39:50;;;;;;;;;5.67;5.67;;;;;;;;5677354;22;3297700;-93
2023/06/06 13:42:16;;;;;;;;;7.33;7.33;;;;;;;;5779201;22;4861262;-92
2023/06/06 13:44:41;;;;;;;;;11.20;10.00;;;;;;;;6052818;22;3584343;-92
2023/06/06 13:47:06;;;;;;;;;13.33;13.33;;;;;;;;6287472;22;1659441;-92
2023/06/06 13:49:34;;;;;;;;;6.33;5.00;;;;;;;;6360917;22;36664;-93
2023/06/06 13:52:00;;;;;;;;;6.00;6.00;;;;;;;;6242391;22;1264750;-92
2023/06/06 13:54:28;;;;;;;;;7.50;7.50;;;;;;;;6251364;22;760237;-91
2023/06/06 13:56:54;;;;;;;;;8.33;8.33;;;;;;;;5376738;22;8835198;-91
2023/06/06 13:59:20;;;;;;;;;9.25;8.75;;;;;;;;6363770;22;29783;-92
2023/06/06 14:01:46;;;;;;;;;7.00;7.00;;;;;;;;6306216;22;353493;-94
2023/06/06 14:04:15;;;;;;;;;6.67;6.67;;;;;;;;6058408;22;3804587;-89
2023/06/06 14:06:43;;;;;;;;;7.60;7.60;;;;;;;;5647275;22;9500513;-96
2023/06/06 14:09:08;;;;;;;;;6.00;6.00;;;;;;;;6321974;22;45316;-92
2023/06/06 14:12:03;;;;;;;;;6.67;6.67;;;;;;;;5227683;22;20689291;-95
2023/06/06 14:17:00;;;;;;;;;9.00;8.00;;;;;;;;4696238;22;23497919;-95
2023/06/06 14:19:51;;;;;;;;;7.00;7.00;;;;;;;;1443400;22;29358596;-90
2023/06/06 14:22:29;;;;;;;;;8.33;7.33;;;;;;;;5150392;22;20669800;-96
2023/06/06 14:24:55;;;;;;;;;6.00;6.00;;;;;;;;5852881;22;6194933;-93
2023/06/06 14:27:21;;;;;;;;;6.25;6.25;;;;;;;;6265183;22;28314;-92
2023/06/06 14:29:47;;;;;;;;;11.33;11.33;;;;;;;;6252287;22;45498;-96
2023/06/06 14:32:44;;;;;;;;;7.00;5.67;;;;;;;;6252636;22;45422;-93
2023/06/06 14:35:10;;;;;;;;;7.67;7.67;;;;;;;;6217844;22;45452;-92
2023/06/06 14:37:35;;;;;;;;;8.67;8.67;;;;;;;;6266101;22;28596;-92
2023/06/06 14:40:01;;;;;;;;;7.67;7.67;;;;;;;;6271655;22;28314;-93
2023/06/06 14:42:27;;;;;;;;;8.00;8.00;;;;;;;;6267529;22;28431;-95
2023/06/06 14:45:01;;;;;;;;;6.33;6.33;;;;;;;;6278059;22;42037;-96
2023/06/06 14:50:55;;;;;;;;;8.33;8.33;;;;;;;;6347973;22;45166;-96
2023/06/06 14:53:20;;;;;;;;;6.00;6.00;;;;;;;;6333263;22;45195;-90
2023/06/06 14:55:46;;;;;;;;;7.00;7.00;;;;;;;;6364362;22;28346;-95
2023/06/06 14:58:16;;;;;;;;;7.00;7.00;;;;;;;;6363510;22;38137;-93
2023/06/06 15:00:42;;;;;;;;;6.33;6.33;;;;;;;;6362069;22;28493;-94
2023/06/06 15:03:08;;;;;;;;;9.33;8.67;;;;;;;;6363662;22;28282;-95
2023/06/06 15:08:48;;;;;;;;;7.00;7.00;;;;;;;;6255547;22;42932;-96
2023/06/06 15:11:14;;;;;;;;;11.33;9.67;;;;;;;;6339984;22;44719;-96
2023/06/06 15:16:33;;;;;;;;;7.67;7.67;;;;;;;;6350314;22;44581;-96
2023/06/06 15:19:08;;;;;;;;;9.33;9.33;;;;;;;;6331423;22;43055;-96
2023/06/06 15:21:33;;;;;;;;;7.33;7.33;;;;;;;;6310035;22;42084;-96
2023/06/06 15:24:00;;;;;;;;;9.33;8.67;;;;;;;;6291467;22;44480;-96
2023/06/06 15:34:11;;;;;;;;;8.33;8.33;;;;;;;;6312476;22;45906;-96
2023/06/06 15:36:37;;;;;;;;;5.00;5.00;;;;;;;;6272735;22;28807;-96
2023/06/06 15:39:02;;;;;;;;;6.33;6.33;;;;;;;;6295508;22;38333;-96
2023/06/06 15:41:28;;;;;;;;;6.67;6.67;;;;;;;;6296684;22;44739;-96
2023/06/06 15:43:53;;;;;;;;;8.67;8.67;;;;;;;;6254926;22;45208;-96
2023/06/06 15:46:19;;;;;;;;;6.67;6.00;;;;;;;;6302349;22;28810;-97
2023/06/06 15:48:56;;;;;;;;;8.00;8.00;;;;;;;;6287403;22;28200;-96
2023/06/06 15:59:20;;;;;;;;;6.00;6.00;;;;;;;;6402068;22;27902;-96
2023/06/06 16:01:50;;;;;;;;;7.67;7.67;;;;;;;;6385506;22;44534;-97
2023/06/06 16:04:15;;;;;;;;;6.67;6.67;;;;;;;;6334287;22;45319;-96
2023/06/06 16:06:42;;;;;;;;;7.33;7.33;;;;;;;;6338874;22;45212;-96
2023/06/06 16:09:07;;;;;;;;;5.67;5.67;;;;;;;;6336239;22;45329;-96
2023/06/06 16:11:35;;;;;;;;;8.33;8.33;;;;;;;;4520244;22;24085655;-89
2023/06/06 16:16:12;;;;;;;;;;;;;;;;;;658232;22;116899923;-93
2023/06/06 16:18:38;;;;;;;;;8.00;8.00;;;;;;;;4323516;22;23335466;-92
2023/06/06 16:21:03;;;;;;;;;6.67;6.67;;;;;;;;6387453;22;8875;-92
2023/06/06 16:23:29;;;;;;;;;9.00;9.00;;;;;;;;6342999;22;38210;-92
2023/06/06 16:25:56;;;;;;;;;6.00;6.00;;;;;;;;6333557;22;44581;-92
2023/06/06 16:28:22;;;;;;;;;8.25;8.25;;;;;;;;6230390;22;2095811;-91
2023/06/06 16:30:48;;;;;;;;;9.33;9.33;;;;;;;;6333678;22;45400;-91
2023/06/06 16:33:14;;;;;;;;;8.00;7.67;;;;;;;;6334582;22;28623;-92
2023/06/06 16:35:39;;;;;;;;;5.00;5.00;;;;;;;;6363223;22;28450;-92
2023/06/06 16:38:05;;;;;;;;;7.33;7.33;;;;;;;;6362751;22;28443;-92
2023/06/06 16:40:30;;;;;;;;;8.67;7.67;;;;;;;;6334471;22;28405;-92
2023/06/06 16:42:55;;;;;;;;;6.33;6.33;;;;;;;;6363085;22;28339;-92
2023/06/06 16:45:21;;;;;;;;;9.67;9.00;;;;;;;;6362951;22;28276;-92
2023/06/06 16:47:46;;;;;;;;;9.00;7.33;;;;;;;;6335014;22;28441;-92
2023/06/06 16:50:12;;;;;;;;;7.00;7.00;;;;;;;;6357194;22;45243;-92
2023/06/06 16:52:37;;;;;;;;;5.67;5.67;;;;;;;;6332842;22;45936;-92
2023/06/06 16:55:04;;;;;;;;;5.00;5.00;;;;;;;;6362936;22;28262;-92
2023/06/06 16:57:30;;;;;;;;;8.00;8.00;;;;;;;;6334402;22;28277;-92
2023/06/06 16:59:55;;;;;;;;;6.33;6.33;;;;;;;;6333710;22;28384;-91
2023/06/06 17:02:23;;;;;;;;;5.00;5.00;;;;;;;;6334436;22;29713;-92
2023/06/06 17:04:49;;;;;;;;;9.33;8.67;;;;;;;;6333504;22;44747;-91
2023/06/06 17:07:17;;;;;;;;;5.67;5.67;;;;;;;;6362760;22;28428;-92
2023/06/06 17:09:43;;;;;;;;;8.00;8.00;;;;;;;;6334471;22;28230;-92
2023/06/06 17:12:08;;;;;;;;;8.00;8.00;;;;;;;;6362430;22;28505;-92
2023/06/06 17:14:33;;;;;;;;;8.67;8.67;;;;;;;;6334968;22;28464;-92
2023/06/06 17:16:59;;;;;;;;;7.00;7.00;;;;;;;;6334487;22;28297;-91
2023/06/06 17:19:24;;;;;;;;;7.67;7.67;;;;;;;;6334224;22;28331;-91
2023/06/06 17:21:50;;;;;;;;;6.33;6.33;;;;;;;;6362029;22;38052;-91
2023/06/06 17:24:15;;;;;;;;;8.33;8.33;;;;;;;;6334391;22;28396;-92
2023/06/06 17:26:41;;;;;;;;;8.33;8.00;;;;;;;;6334572;22;28202;-92
2023/06/06 17:29:12;;;;;;;;;7.33;7.33;;;;;;;;6362604;22;28178;-92
2023/06/06 17:31:37;;;;;;;;;11.33;10.00;;;;;;;;6362506;22;28582;-91
2023/06/06 17:34:03;;;;;;;;;7.00;7.00;;;;;;;;6334438;22;28472;-91
2023/06/06 17:36:28;;;;;;;;;9.67;8.33;;;;;;;;6333843;22;28455;-92
2023/06/06 17:38:56;;;;;;;;;9.00;9.00;;;;;;;;6333175;22;28467;-91
2023/06/06 17:41:23;;;;;;;;;7.00;5.67;;;;;;;;6325456;22;45169;-91
2023/06/06 17:43:49;;;;;;;;;7.67;7.67;;;;;;;;6331414;22;45734;-92
2023/06/06 17:46:14;;;;;;;;;8.00;8.00;;;;;;;;6363052;22;28397;-91
2023/06/06 17:48:41;;;;;;;;;6.00;6.00;;;;;;;;6334047;22;38292;-92
2023/06/06 17:51:06;;;;;;;;;10.00;10.00;;;;;;;;6362593;22;29131;-91
2023/06/06 17:53:31;;;;;;;;;4.33;4.33;;;;;;;;6334470;22;29803;-92
2023/06/06 17:55:57;;;;;;;;;7.33;7.33;;;;;;;;6361738;22;42195;-92
2023/06/06 17:58:22;;;;;;;;;8.33;8.33;;;;;;;;6328686;22;45247;-91
2023/06/06 18:00:47;;;;;;;;;5.00;4.33;;;;;;;;6333517;22;29639;-92
2023/06/06 18:03:13;;;;;;;;;8.00;8.00;;;;;;;;6334349;22;28270;-91
2023/06/06 18:05:38;;;;;;;;;9.00;9.00;;;;;;;;6362734;22;28339;-91
2023/06/06 18:08:04;;;;;;;;;7.33;7.33;;;;;;;;6362581;22;28285;-91
2023/06/06 18:10:29;;;;;;;;;8.33;8.33;;;;;;;;6333180;22;38162;-91
2023/06/06 18:12:55;;;;;;;;;7.67;7.67;;;;;;;;6362089;22;35927;-91
2023/06/06 18:15:21;;;;;;;;;8.33;8.33;;;;;;;;6363144;22;28412;-92
2023/06/06 18:17:47;;;;;;;;;9.00;9.00;;;;;;;;6362844;22;28475;-92
2023/06/06 18:20:12;;;;;;;;;9.67;8.33;;;;;;;;6333281;22;44549;-91
2023/06/06 18:22:38;;;;;;;;;8.33;8.33;;;;;;;;6360650;22;44688;-91
2023/06/06 18:25:04;;;;;;;;;7.33;7.33;;;;;;;;6331643;22;45264;-91
2023/06/06 18:27:30;;;;;;;;;12.00;9.33;;;;;;;;6333545;22;42159;-91
2023/06/06 18:29:55;;;;;;;;;8.00;8.00;;;;;;;;6332689;22;44710;-91
2023/06/06 18:32:20;;;;;;;;;8.00;8.00;;;;;;;;6332643;22;43031;-91
2023/06/06 18:34:46;;;;;;;;;8.67;8.67;;;;;;;;6334632;22;28433;-92
2023/06/06 18:37:11;;;;;;;;;9.00;9.00;;;;;;;;6333859;22;28400;-91
2023/06/06 18:39:36;;;;;;;;;7.33;7.33;;;;;;;;6333210;22;29555;-91
2023/06/06 18:42:03;;;;;;;;;9.00;9.00;;;;;;;;6334223;22;29276;-92
2023/06/06 18:44:29;;;;;;;;;11.00;9.67;;;;;;;;6362725;22;29090;-91
2023/06/06 18:46:54;;;;;;;;;8.33;8.33;;;;;;;;6362891;22;28224;-91
2023/06/06 18:49:20;;;;;;;;;6.33;6.33;;;;;;;;6334384;22;30662;-92
2023/06/06 18:51:47;;;;;;;;;7.33;7.00;;;;;;;;6331325;22;44561;-91
2023/06/06 18:54:13;;;;;;;;;9.33;9.33;;;;;;;;6361539;22;42941;-92
2023/06/06 18:56:38;;;;;;;;;8.33;8.33;;;;;;;;6329384;22;45295;-92
2023/06/06 18:59:07;;;;;;;;;7.33;7.33;;;;;;;;6332987;22;29894;-92
2023/06/06 19:01:33;;;;;;;;;9.33;9.33;;;;;;;;6362312;22;28343;-92
2023/06/06 19:03:58;;;;;;;;;8.00;8.00;;;;;;;;6362340;22;28514;-91
2023/06/06 19:06:25;;;;;;;;;8.00;7.00;;;;;;;;6362471;22;28148;-91
2023/06/06 19:08:52;;;;;;;;;7.33;7.33;;;;;;;;6332748;22;28394;-92
2023/06/06 19:11:17;;;;;;;;;7.33;7.33;;;;;;;;6333743;22;28548;-91
2023/06/06 19:13:43;;;;;;;;;6.67;6.67;;;;;;;;6362356;22;28414;-91
2023/06/06 19:16:08;;;;;;;;;8.00;8.00;;;;;;;;6362934;22;28532;-91
2023/06/06 19:18:33;;;;;;;;;7.00;7.00;;;;;;;;6333547;22;29720;-91
2023/06/06 19:20:58;;;;;;;;;7.33;6.33;;;;;;;;6362457;22;28446;-91
2023/06/06 19:23:24;;;;;;;;;8.67;8.67;;;;;;;;6362212;22;28370;-92
2023/06/06 19:25:49;;;;;;;;;6.33;6.33;;;;;;;;6362862;22;28326;-91
2023/06/06 19:28:17;;;;;;;;;7.33;7.33;;;;;;;;6333140;22;35961;-92
2023/06/06 19:30:42;;;;;;;;;5.67;5.67;;;;;;;;6361711;22;28348;-92
2023/06/06 19:33:08;;;;;;;;;7.50;7.50;;;;;;;;6361330;22;42716;-92
2023/06/06 19:35:36;;;;;;;;;5.67;5.67;;;;;;;;6335147;22;28179;-92
2023/06/06 19:38:02;;;;;;;;;7.33;7.33;;;;;;;;6360616;22;44694;-91
2023/06/06 19:40:28;;;;;;;;;6.33;6.33;;;;;;;;6329873;22;45378;-91
2023/06/06 19:42:53;;;;;;;;;7.00;7.00;;;;;;;;6328686;22;45246;-91
2023/06/06 19:45:18;;;;;;;;;6.67;6.67;;;;;;;;6335971;22;28482;-92
2023/06/06 19:47:44;;;;;;;;;9.33;9.33;;;;;;;;6333197;22;38347;-92
2023/06/06 19:50:10;;;;;;;;;7.67;7.00;;;;;;;;6361663;22;28439;-92
2023/06/06 19:52:35;;;;;;;;;7.00;6.67;;;;;;;;6333237;22;28412;-91
2023/06/06 19:55:00;;;;;;;;;7.67;7.67;;;;;;;;6335197;22;28336;-92
2023/06/06 19:57:26;;;;;;;;;6.67;6.67;;;;;;;;6334259;22;29498;-91
2023/06/06 19:59:51;;;;;;;;;7.33;6.67;;;;;;;;6363312;22;28393;-92
2023/06/06 20:02:17;;;;;;;;;9.67;7.67;;;;;;;;6334278;22;28300;-91
2023/06/06 20:04:43;;;;;;;;;7.00;7.00;;;;;;;;6362795;22;38342;-91
2023/06/06 20:07:08;;;;;;;;;6.67;6.67;;;;;;;;6333708;22;42830;-91
2023/06/06 20:09:34;;;;;;;;;6.33;6.33;;;;;;;;6334480;22;29047;-92
2023/06/06 20:12:05;;;;;;;;;11.33;11.33;;;;;;;;6331434;22;38466;-93
2023/06/06 20:14:31;;;;;;;;;7.00;7.00;;;;;;;;6357791;22;45367;-91
2023/06/06 20:16:58;;;;;;;;;6.00;6.00;;;;;;;;6361721;22;42669;-92
2023/06/06 20:19:33;;;;;;;;;7.33;7.33;;;;;;;;6330677;22;42390;-94
2023/06/06 20:28:48;;;;;;;;;6.33;6.33;;;;;;;;6198437;23;45574;-93
2023/06/06 20:35:00;;;;;;;;;6.33;6.33;;;;;;;;6171857;23;28419;-93
2023/06/06 20:37:26;;;;;;;;;11.00;9.67;;;;;;;;6188834;22;44205;-91
2023/06/06 20:39:52;;;;;;;;;8.00;8.00;;;;;;;;6312410;22;45210;-91
2023/06/06 20:43:01;;;;;;;;;10.00;10.00;;;;;;;;6330411;22;45322;-93
2023/06/06 20:51:45;;;;;;;;;11.33;10.00;;;;;;;;6265614;22;28933;-91
2023/06/06 20:54:10;;;;;;;;;12.00;12.00;;;;;;;;6314115;22;29231;-91
2023/06/06 20:56:35;;;;;;;;;14.33;13.33;;;;;;;;6363797;22;28273;-91
2023/06/06 20:59:00;;;;;;;;;8.67;8.67;;;;;;;;6363628;22;44769;-91
2023/06/06 21:01:38;;;;;;;;;;;;;;;;;;;;;
2023/06/06 21:04:26;;;;;;;;;9.00;9.00;;;;;;;;6361531;22;57435;-93
2023/06/06 21:07:33;;;;;;;;;5.67;5.67;;;;;;;;6330712;22;44617;-93
2023/06/06 21:10:31;;;;;;;;;9.00;9.00;;;;;;;;6332005;22;42982;-93
2023/06/06 21:13:22;;;;;;;;;10.00;10.00;;;;;;;;6360153;22;42081;-93
2023/06/06 21:19:16;;;;;;;;;11.33;11.33;;;;;;;;6256723;22;45257;-93
2023/06/06 21:21:44;;;;;;;;;10.00;7.33;;;;;;;;6324347;22;45323;-92
2023/06/06 21:24:12;;;;;;;;;11.00;10.33;;;;;;;;6363708;22;28415;-92
2023/06/06 21:27:02;;;;;;;;;7.00;7.00;;;;;;;;6356610;22;45208;-93
2023/06/06 21:29:29;;;;;;;;;12.00;12.00;;;;;;;;6333251;22;28400;-93
2023/06/06 21:32:01;;;;;;;;;10.33;10.33;;;;;;;;6335039;22;28206;-93
2023/06/06 21:34:36;;;;;;;;;10.33;10.33;;;;;;;;6355319;22;44739;-92
2023/06/06 21:37:01;;;;;;;;;14.00;11.33;;;;;;;;6342922;22;45401;-92
2023/06/06 21:39:46;;;;;;;;;9.00;9.00;;;;;;;;6344456;22;45348;-93
2023/06/06 21:42:17;;;;;;;;;12.67;12.67;;;;;;;;6334915;22;28332;-92
2023/06/06 21:44:45;;;;;;;;;11.67;11.67;;;;;;;;6333899;22;47825;-92
2023/06/06 21:47:23;;;;;;;;;;;;;;;;;;;;;
2023/06/06 21:49:51;;;;;;;;;12.00;10.33;;;;;;;;6360542;22;53369;-92
2023/06/06 21:52:26;;;;;;;;;8.00;8.00;;;;;;;;6360872;22;45205;-92
2023/06/06 21:55:09;;;;;;;;;7.33;7.33;;;;;;;;6333638;22;38295;-92
2023/06/06 21:57:34;;;;;;;;;12.00;10.33;;;;;;;;6336179;22;28467;-92
2023/06/06 22:00:00;;;;;;;;;7.00;7.00;;;;;;;;6337666;22;28292;-92
2023/06/06 22:02:32;;;;;;;;;15.00;13.33;;;;;;;;6334969;22;28187;-93
2023/06/06 22:05:01;;;;;;;;;10.67;8.33;;;;;;;;6334649;22;30555;-92
2023/06/06 22:07:31;;;;;;;;;9.00;7.33;;;;;;;;6361988;22;44512;-92
2023/06/06 22:10:05;;;;;;;;;7.67;7.67;;;;;;;;6334150;22;28274;-92
2023/06/06 22:12:30;;;;;;;;;8.33;8.33;;;;;;;;6361459;22;44602;-93
2023/06/06 22:14:58;;;;;;;;;10.33;10.33;;;;;;;;6325931;22;47117;-92
2023/06/06 22:17:25;;;;;;;;;10.00;10.00;;;;;;;;6355902;22;44675;-92
2023/06/06 22:19:51;;;;;;;;;11.33;11.33;;;;;;;;6360597;22;42318;-92
2023/06/06 22:22:19;;;;;;;;;6.67;6.67;;;;;;;;6334762;22;28345;-92
2023/06/06 22:24:44;;;;;;;;;8.33;8.33;;;;;;;;6329271;22;45352;-92
2023/06/06 22:27:10;;;;;;;;;7.33;7.33;;;;;;;;6332845;22;35648;-92
2023/06/06 22:29:40;;;;;;;;;12.00;10.33;;;;;;;;6362711;22;28509;-92
2023/06/06 22:32:06;;;;;;;;;9.00;8.33;;;;;;;;6363120;22;28375;-93
2023/06/06 22:34:34;;;;;;;;;9.67;9.67;;;;;;;;6333667;22;30120;-93
2023/06/06 22:37:02;;;;;;;;;10.00;10.00;;;;;;;;6333957;22;28456;-92
2023/06/06 22:39:27;;;;;;;;;9.00;9.00;;;;;;;;6334222;22;28458;-92
2023/06/06 22:41:52;;;;;;;;;11.67;10.67;;;;;;;;6334605;22;28446;-92
2023/06/06 22:44:19;;;;;;;;;11.00;11.00;;;;;;;;6333706;22;29742;-92
2023/06/06 22:46:44;;;;;;;;;11.33;10.67;;;;;;;;6331200;22;45136;-92
2023/06/06 22:49:12;;;;;;;;;12.67;11.00;;;;;;;;6331280;22;45199;-92
2023/06/06 22:51:43;;;;;;;;;9.00;9.00;;;;;;;;6362813;22;28178;-93
2023/06/06 22:54:18;;;;;;;;;;;;;;;;;;;;;
2023/06/06 22:56:49;;;;;;;;;9.67;8.00;;;;;;;;6359401;22;72794;-92
2023/06/06 22:59:16;;;;;;;;;13.33;10.67;;;;;;;;6367533;22;28419;-93
2023/06/06 23:01:41;;;;;;;;;11.33;11.33;;;;;;;;6363174;22;28222;-92
2023/06/06 23:04:09;;;;;;;;;16.33;12.00;;;;;;;;6343362;22;29796;-92
2023/06/06 23:06:37;;;;;;;;;12.33;11.67;;;;;;;;6369004;22;28282;-92
2023/06/06 23:09:15;;;;;;;;;;;;;;;;;;;;;
2023/06/06 23:11:43;;;;;;;;;13.33;11.67;;;;;;;;6359371;22;51737;-92
2023/06/06 23:14:08;;;;;;;;;13.00;13.00;;;;;;;;6334418;22;29818;-92
2023/06/06 23:16:41;;;;;;;;;9.67;9.67;;;;;;;;6348438;22;38213;-92
2023/06/06 23:19:11;;;;;;;;;11.00;11.00;;;;;;;;6361742;22;44545;-92
2023/06/06 23:21:36;;;;;;;;;14.00;11.00;;;;;;;;6362297;22;28373;-92
2023/06/06 23:24:01;;;;;;;;;6.67;6.67;;;;;;;;6362508;22;28301;-92
2023/06/06 23:26:29;;;;;;;;;10.00;10.00;;;;;;;;6362550;22;28187;-92
2023/06/06 23:29:04;;;;;;;;;;;;;;;;;;;;;
2023/06/06 23:31:37;;;;;;;;;13.33;13.33;;;;;;;;6360911;22;52727;-93
2023/06/06 23:34:03;;;;;;;;;13.67;13.67;;;;;;;;6361939;22;36139;-92
2023/06/06 23:36:49;;;;;;;;;11.33;11.00;;;;;;;;6362022;22;28226;-92
2023/06/06 23:39:19;;;;;;;;;12.67;12.67;;;;;;;;6333271;22;38880;-92
2023/06/06 23:41:46;;;;;;;;;12.00;12.00;;;;;;;;6332922;22;38102;-92
2023/06/06 23:44:12;;;;;;;;;14.67;14.67;;;;;;;;6333843;22;30388;-92
2023/06/06 23:46:39;;;;;;;;;12.33;12.33;;;;;;;;6362508;22;28169;-92
2023/06/06 23:49:05;;;;;;;;;10.33;10.33;;;;;;;;6332493;22;39090;-92
2023/06/06 23:51:32;;;;;;;;;14.33;14.00;;;;;;;;6361283;22;28348;-92
2023/06/06 23:53:57;;;;;;;;;12.67;12.67;;;;;;;;6331916;22;47003;-92
2023/06/06 23:56:23;;;;;;;;;14.67;14.67;;;;;;;;6361933;22;28324;-92
2023/06/06 23:58:50;;;;;;;;;13.33;12.67;;;;;;;;6332844;22;28474;-92
